Have a Safe July 4th! 

Flight Track Log - Related Links

Times and Time Zones

All times are in EDT time to prevent confusion due to time zone crossing. See the UAL4846 flight status page for this flight to view local times or setup timezone preferences in your user account.

Time Position Orientation Groundspeed Altitude Reporting Facility
EDT Latitude Longitude Course Direction KTS MPH feet Rate Location/Type
Mon 12:05:00 PM 40.8470 -73.7741 63° Northeast  Level Estimated
Mon 12:06:00 PM 40.8727 -73.7082 63° Northeast  Level Estimated
Mon 12:07:00 PM 40.8983 -73.6422 63° Northeast  Level Estimated
Mon 12:08:00 PM 40.9238 -73.5761 63° Northeast  Level Estimated
Mon 12:09:00 PM 40.9493 -73.5101 63° Northeast  Level Estimated
Mon 12:10:00 PM 40.9748 -73.4439 63° Northeast  Level Estimated
Mon 12:11:00 PM 41.0003 -73.3777 63° Northeast  Level Estimated
Mon 12:12:00 PM 41.0257 -73.3115 63° Northeast  Level Estimated
Mon 12:13:00 PM 41.0510 -73.2452 63° Northeast  Level Estimated
Mon 12:14:00 PM 41.0763 -73.1789 63° Northeast  Level Estimated
Mon 12:15:00 PM 41.1016 -73.1125 63° Northeast  Level Estimated
Mon 12:16:00 PM 41.1269 -73.0460 63° Northeast  Level Estimated
Mon 12:17:00 PM 41.1521 -72.9795 63° Northeast  Level Estimated
Mon 12:18:00 PM 41.1772 -72.9130 63° Northeast  Level Estimated
Mon 12:19:00 PM 41.2024 -72.8464 63° Northeast  Level Estimated
Mon 12:20:00 PM 41.2275 -72.7797 63° Northeast  Level Estimated
Mon 12:21:00 PM 41.2525 -72.7130 63° Northeast  Level Estimated
Mon 12:22:00 PM 41.2776 -72.6463 63° Northeast  Level Estimated
Mon 12:23:00 PM 41.3025 -72.5795 64° Northeast  Level Estimated
Mon 12:24:00 PM 41.3275 -72.5126 64° Northeast  Level Estimated
Mon 12:25:00 PM 41.3524 -72.4457 64° Northeast  Level Estimated
Mon 12:26:00 PM 41.3772 -72.3787 64° Northeast  Level Estimated
Mon 12:27:00 PM 41.4021 -72.3117 64° Northeast  Level Estimated
Mon 12:28:00 PM 41.4269 -72.2447 64° Northeast  Level Estimated
Mon 12:29:00 PM 41.4516 -72.1776 64° Northeast  Level Estimated
Mon 12:30:00 PM 41.4763 -72.1104 64° Northeast  Level Estimated
Mon 12:31:00 PM 41.5010 -72.0432 64° Northeast  Level Estimated
Mon 12:32:00 PM 41.5256 -71.9759 64° Northeast  Level Estimated
Mon 12:33:00 PM 41.5502 -71.9086 64° Northeast  Level Estimated
Mon 12:34:00 PM 41.5748 -71.8412 64° Northeast  Level Estimated
Mon 12:35:00 PM 41.5993 -71.7738 64° Northeast  Level Estimated
Mon 12:36:00 PM 41.6237 -71.7063 64° Northeast  Level Estimated
Mon 12:37:00 PM 41.6482 -71.6388 64° Northeast  Level Estimated
Mon 12:38:00 PM 41.6726 -71.5712 64° Northeast  Level Estimated
Mon 12:39:00 PM 41.6969 -71.5036 64° Northeast  Level Estimated
Mon 12:40:00 PM 41.7212 -71.4360 64° Northeast  Level Estimated
Mon 12:41:00 PM 41.7240 -71.4282 64° Northeast  Level Estimated
Mon 12:42:00 PM 41.7240 -71.4282 226° Southwest  Level Estimated
Mon 12:43:00 PM 41.7240 -71.4282 226° Southwest  Level Estimated
Mon 12:44:00 PM 41.7240 -71.4282 226° Southwest  Level Estimated
Mon 12:45:00 PM 41.7240 -71.4282 226° Southwest  Level Estimated
Mon 12:46:00 PM 41.7240 -71.4282 226° Southwest  Level Estimated
Mon 12:47:00 PM 41.7240 -71.4282 226° Southwest  Level Estimated
Mon 12:48:00 PM 41.7240 -71.4282 226° Southwest  Level Estimated
Mon 12:49:00 PM 41.7240 -71.4282 226° Southwest  Level Estimated
Mon 12:50:00 PM 41.7240 -71.4282 226° Southwest  Level Estimated
Mon 12:51:00 PM 41.7240 -71.4282 226° Southwest  Level Estimated
Mon 12:52:00 PM 41.7240 -71.4282 226° Southwest  Level Estimated
Mon 12:53:00 PM 41.7240 -71.4282 226° Southwest  Level Estimated
Mon 12:54:00 PM 41.7240 -71.4282 226° Southwest  Level Estimated
Mon 12:55:00 PM 41.7240 -71.4282 226° Southwest  Level Estimated
Mon 12:56:00 PM 41.7240 -71.4282 226° Southwest  Level Estimated

Login

Don't have an account? Register now (free) for customized features, flight alerts, and more!